Beverly, Washington
Current Conditions -  °F | °C
As of 4:56 PM on Sunday 23 Nov 2014 (Local Time) from K1YT Reporting Station
Clear Clear  
Wind Chill: 44°   Ceiling: Unl
Heat Index: 44°   Visibility: 10mi
Dew Point: 35°   Wind: 1mph
Humidity: 72%   Direction: NA
Pressure: 30.16"   Gusts: NA
Location:  46.84°N, 119.94°W
Report Text: K1YT 240056Z AUTO VRB01KT 10SM CLR 06/02 A3016 RMK AO2 SLPNO T00640016
Loading
Personal Weather Stations






























Interactive Weather Map New forecast layout! Learn more

10-Day Weather Forecast

Advertisements
Track Severe Weather on mobile